Time;durP1;ratioP1;P1;durP2;ratioP2;P2;SDS_P1;SDS_P2;PMS_P1;PMS_P2;Temp;Humidity;BMP_temperature;BMP_pressure;BME280_temperature;BME280_humidity;BME280_pressure;Samples;Min_cycle;Max_cycle;Signal;HPM_P1;HPM_P2
2021/12/02 00:01:14;;;;;;;7.90;1.58;;;;;;;;;;5005635;28;20421;-79
2021/12/02 00:03:42;;;;;;;9.82;1.70;;;;;;;;;;5005875;28;20416;-79
2021/12/02 00:06:09;;;;;;;9.17;1.77;;;;;;;;;;5009270;28;20425;-79
2021/12/02 00:08:35;;;;;;;7.23;1.60;;;;;;;;;;5009941;28;20776;-78
2021/12/02 00:11:02;;;;;;;10.23;1.83;;;;;;;;;;5009323;28;20420;-79
2021/12/02 00:13:31;;;;;;;9.80;1.75;;;;;;;;;;5009270;28;20425;-79
2021/12/02 00:16:04;;;;;;;7.97;1.65;;;;;;;;;;5007875;28;20965;-79
2021/12/02 00:21:17;;;;;;;9.80;1.60;;;;;;;;;;5000751;28;20443;-79
2021/12/02 00:23:46;;;;;;;6.50;1.50;;;;;;;;;;5008706;28;20456;-79
2021/12/02 00:26:14;;;;;;;7.22;1.88;;;;;;;;;;5009881;28;20421;-79
2021/12/02 00:28:40;;;;;;;9.27;1.80;;;;;;;;;;5010423;28;20420;-78
2021/12/02 00:31:10;;;;;;;6.10;1.67;;;;;;;;;;5008282;28;20424;-79
2021/12/02 00:33:36;;;;;;;9.25;1.60;;;;;;;;;;4992505;28;20501;-79
2021/12/02 00:36:02;;;;;;;7.85;1.67;;;;;;;;;;5008313;28;20431;-78
2021/12/02 00:38:28;;;;;;;8.85;1.70;;;;;;;;;;5007870;28;20421;-76
2021/12/02 00:40:55;;;;;;;8.55;1.60;;;;;;;;;;5018237;28;20467;-78
2021/12/02 00:43:21;;;;;;;6.80;1.70;;;;;;;;;;4991681;28;20444;-78
2021/12/02 00:45:47;;;;;;;7.40;1.92;;;;;;;;;;5008751;28;20429;-78
2021/12/02 00:48:14;;;;;;;9.30;1.52;;;;;;;;;;5007942;28;20421;-78
2021/12/02 00:50:42;;;;;;;7.88;1.52;;;;;;;;;;4991382;28;20474;-78
2021/12/02 00:53:08;;;;;;;8.07;1.37;;;;;;;;;;5007879;28;20785;-78
2021/12/02 00:55:36;;;;;;;7.88;1.63;;;;;;;;;;5008363;28;20436;-78
2021/12/02 00:58:03;;;;;;;5.10;1.50;;;;;;;;;;5023813;28;20448;-78
2021/12/02 01:00:29;;;;;;;7.13;1.50;;;;;;;;;;5030544;28;20429;-78
2021/12/02 01:02:58;;;;;;;6.57;1.50;;;;;;;;;;5031936;28;20422;-78
2021/12/02 01:05:25;;;;;;;8.07;1.43;;;;;;;;;;5029282;28;20866;-78
2021/12/02 01:07:51;;;;;;;4.80;1.20;;;;;;;;;;5032349;28;20770;-78
2021/12/02 01:10:17;;;;;;;11.05;1.67;;;;;;;;;;5030804;28;20456;-78
2021/12/02 01:12:43;;;;;;;7.57;1.38;;;;;;;;;;5031208;28;20446;-78
2021/12/02 01:15:10;;;;;;;9.37;1.53;;;;;;;;;;5048167;28;20852;-79
2021/12/02 01:17:36;;;;;;;5.78;1.40;;;;;;;;;;5047716;28;20442;-79
2021/12/02 01:20:03;;;;;;;8.20;2.15;;;;;;;;;;5014280;28;20441;-78
2021/12/02 01:22:33;;;;;;;6.45;1.45;;;;;;;;;;5030041;28;20433;-79
2021/12/02 01:25:00;;;;;;;6.10;1.20;;;;;;;;;;5013895;28;20417;-77
2021/12/02 01:27:26;;;;;;;7.47;1.35;;;;;;;;;;5049430;27;20830;-78
2021/12/02 01:29:53;;;;;;;7.53;1.10;;;;;;;;;;5030807;28;20761;-78
2021/12/02 01:32:20;;;;;;;7.72;1.30;;;;;;;;;;5028223;28;20500;-78
2021/12/02 01:34:48;;;;;;;8.00;1.30;;;;;;;;;;5029927;28;20557;-78
2021/12/02 01:37:15;;;;;;;7.30;1.50;;;;;;;;;;5029238;27;20432;-77
2021/12/02 01:39:41;;;;;;;8.20;1.25;;;;;;;;;;5063445;27;20551;-77
2021/12/02 01:42:11;;;;;;;5.82;1.10;;;;;;;;;;5014168;28;20425;-77
2021/12/02 01:44:40;;;;;;;3.90;1.10;;;;;;;;;;5047635;28;20413;-77
2021/12/02 01:47:11;;;;;;;4.40;0.93;;;;;;;;;;5029970;28;20424;-77
2021/12/02 01:49:40;;;;;;;4.10;0.95;;;;;;;;;;5030687;27;20418;-77
2021/12/02 01:52:09;;;;;;;4.03;1.05;;;;;;;;;;5063165;27;20555;-76
2021/12/02 01:54:42;;;;;;;4.13;1.10;;;;;;;;;;5030762;28;20422;-77
2021/12/02 01:57:08;;;;;;;6.50;1.17;;;;;;;;;;5047298;28;20422;-77
2021/12/02 01:59:36;;;;;;;5.43;1.20;;;;;;;;;;5030607;28;20429;-77
2021/12/02 02:02:07;;;;;;;6.78;1.33;;;;;;;;;;5029761;28;20457;-77
2021/12/02 02:04:33;;;;;;;8.13;1.67;;;;;;;;;;5027976;28;20417;-77
2021/12/02 02:07:06;;;;;;;8.35;1.92;;;;;;;;;;5047635;28;20486;-77
2021/12/02 02:09:34;;;;;;;8.13;1.83;;;;;;;;;;5030351;28;20504;-77
2021/12/02 02:12:07;;;;;;;6.00;1.10;;;;;;;;;;5029554;27;20509;-77
2021/12/02 02:14:34;;;;;;;7.15;1.30;;;;;;;;;;5047046;28;20432;-77
2021/12/02 02:17:07;;;;;;;7.68;1.60;;;;;;;;;;5041187;27;20425;-77
2021/12/02 02:19:34;;;;;;;6.50;1.40;;;;;;;;;;5013002;27;21344;-76
2021/12/02 02:22:00;;;;;;;8.68;1.40;;;;;;;;;;5029459;28;20444;-77
2021/12/02 02:24:28;;;;;;;6.47;1.20;;;;;;;;;;5062195;27;20419;-77
2021/12/02 02:26:54;;;;;;;8.02;1.30;;;;;;;;;;5044580;28;20497;-76
2021/12/02 02:29:20;;;;;;;4.22;1.00;;;;;;;;;;5030169;28;20414;-76
2021/12/02 02:31:48;;;;;;;4.45;1.33;;;;;;;;;;5029716;28;20507;-77
2021/12/02 02:34:14;;;;;;;6.00;1.60;;;;;;;;;;5029690;28;20421;-77
2021/12/02 02:36:49;;;;;;;5.88;1.35;;;;;;;;;;5028660;28;20422;-77
2021/12/02 02:39:15;;;;;;;5.40;1.45;;;;;;;;;;5029976;28;20769;-77
2021/12/02 02:41:44;;;;;;;4.70;1.08;;;;;;;;;;5029413;28;20546;-77
2021/12/02 02:44:10;;;;;;;6.63;1.15;;;;;;;;;;5030024;28;20743;-77
2021/12/02 02:46:39;;;;;;;8.80;1.70;;;;;;;;;;5029625;28;20519;-77
2021/12/02 02:49:07;;;;;;;6.70;1.63;;;;;;;;;;5070145;27;21165;-77
2021/12/02 02:51:34;;;;;;;5.50;1.40;;;;;;;;;;5029813;28;20465;-77
2021/12/02 02:54:04;;;;;;;7.22;1.30;;;;;;;;;;5047114;28;20480;-77
2021/12/02 02:56:32;;;;;;;7.00;2.03;;;;;;;;;;5013192;28;20765;-77
2021/12/02 02:59:04;;;;;;;5.40;1.70;;;;;;;;;;5046512;27;20418;-76
2021/12/02 03:01:47;;;;;;;4.35;1.27;;;;;;;;;;5021955;28;20492;-77
2021/12/02 03:04:25;;;;;;;6.30;1.65;;;;;;;;;;5045261;28;20421;-77
2021/12/02 03:07:05;;;;;;;6.70;1.40;;;;;;;;;;5028760;28;20519;-77
2021/12/02 03:12:07;;;;;;;5.05;1.38;;;;;;;;;;5029396;28;20421;-77
2021/12/02 03:17:07;;;;;;;7.43;1.63;;;;;;;;;;5027925;28;20426;-77
2021/12/02 03:19:35;;;;;;;6.07;1.52;;;;;;;;;;5028935;28;20425;-77
2021/12/02 03:22:01;;;;;;;6.17;1.50;;;;;;;;;;5046719;28;20785;-77
2021/12/02 03:24:27;;;;;;;7.60;1.48;;;;;;;;;;5028857;28;20413;-76
2021/12/02 03:26:53;;;;;;;6.07;1.30;;;;;;;;;;5025857;28;21015;-76
2021/12/02 03:29:19;;;;;;;4.83;1.03;;;;;;;;;;5029421;28;20421;-75
2021/12/02 03:31:46;;;;;;;5.72;1.60;;;;;;;;;;5029520;27;20927;-76
2021/12/02 03:34:12;;;;;;;3.95;1.30;;;;;;;;;;5028915;28;20417;-76
2021/12/02 03:36:38;;;;;;;2.92;0.90;;;;;;;;;;5028141;28;20485;-76
2021/12/02 03:39:06;;;;;;;3.72;0.82;;;;;;;;;;5030220;28;20467;-76
2021/12/02 03:41:33;;;;;;;4.22;1.00;;;;;;;;;;5032821;28;20452;-76
2021/12/02 03:43:59;;;;;;;3.23;0.90;;;;;;;;;;5031369;28;20422;-76
2021/12/02 03:46:25;;;;;;;2.42;0.60;;;;;;;;;;5017366;28;20467;-76
2021/12/02 03:48:52;;;;;;;4.45;1.10;;;;;;;;;;5024458;28;20500;-77
2021/12/02 03:51:18;;;;;;;2.70;0.90;;;;;;;;;;5032202;28;20432;-76
2021/12/02 03:53:45;;;;;;;3.35;0.80;;;;;;;;;;5031756;28;20421;-76
2021/12/02 03:56:11;;;;;;;5.95;1.00;;;;;;;;;;5056222;27;20418;-76
2021/12/02 03:58:38;;;;;;;2.67;1.00;;;;;;;;;;5014023;28;20505;-76
2021/12/02 04:01:05;;;;;;;3.05;0.90;;;;;;;;;;4992630;28;20434;-77
2021/12/02 04:03:31;;;;;;;5.15;0.95;;;;;;;;;;5009379;28;20433;-77
2021/12/02 04:05:57;;;;;;;4.70;1.00;;;;;;;;;;5010251;28;20424;-77
2021/12/02 04:08:31;;;;;;;5.43;1.58;;;;;;;;;;5011260;28;20416;-77
2021/12/02 04:11:24;;;;;;;5.00;1.20;;;;;;;;;;5008813;28;20453;-77
2021/12/02 04:14:00;;;;;;;4.60;1.10;;;;;;;;;;5024502;28;20780;-77
2021/12/02 04:16:27;;;;;;;4.97;1.00;;;;;;;;;;5008572;28;20463;-76
2021/12/02 04:18:53;;;;;;;4.38;1.30;;;;;;;;;;5008892;28;20425;-67
2021/12/02 04:21:19;;;;;;;6.40;1.40;;;;;;;;;;4991254;28;20456;-67
2021/12/02 04:23:45;;;;;;;4.07;1.23;;;;;;;;;;5008857;28;21037;-67
2021/12/02 04:26:12;;;;;;;7.17;1.50;;;;;;;;;;5008073;28;20421;-67
2021/12/02 04:28:38;;;;;;;5.15;1.13;;;;;;;;;;5024635;28;20431;-67
2021/12/02 04:31:04;;;;;;;2.63;1.00;;;;;;;;;;5009052;28;20763;-77
2021/12/02 04:33:30;;;;;;;2.45;0.88;;;;;;;;;;5009098;28;20784;-76
2021/12/02 04:35:58;;;;;;;3.53;1.05;;;;;;;;;;5008201;28;20425;-77
2021/12/02 04:38:24;;;;;;;3.20;0.77;;;;;;;;;;4991125;28;20434;-76
2021/12/02 04:40:50;;;;;;;3.50;0.75;;;;;;;;;;5008438;28;20829;-76
2021/12/02 04:43:16;;;;;;;3.28;0.70;;;;;;;;;;4991703;28;20429;-77
2021/12/02 04:45:42;;;;;;;2.30;0.70;;;;;;;;;;5008750;28;20424;-77
2021/12/02 04:48:08;;;;;;;2.88;0.70;;;;;;;;;;5007977;28;20574;-67
2021/12/02 04:50:35;;;;;;;3.65;0.70;;;;;;;;;;5007074;28;20916;-67
2021/12/02 04:53:01;;;;;;;1.37;0.50;;;;;;;;;;5007701;28;20994;-67
2021/12/02 04:55:27;;;;;;;2.15;0.60;;;;;;;;;;5007761;28;20489;-67
2021/12/02 04:57:54;;;;;;;1.63;0.50;;;;;;;;;;5026625;28;20422;-67
2021/12/02 05:00:20;;;;;;;2.97;1.13;;;;;;;;;;5049082;28;20802;-67
2021/12/02 05:02:46;;;;;;;2.67;0.77;;;;;;;;;;5014156;27;20459;-67
2021/12/02 05:05:13;;;;;;;1.05;0.60;;;;;;;;;;5030884;28;20489;-67
2021/12/02 05:07:39;;;;;;;1.83;0.80;;;;;;;;;;5029869;28;20971;-67
2021/12/02 05:10:06;;;;;;;2.03;0.73;;;;;;;;;;5031543;28;20417;-67
2021/12/02 05:12:32;;;;;;;3.50;0.68;;;;;;;;;;5030611;27;20769;-68
2021/12/02 05:14:58;;;;;;;2.00;0.52;;;;;;;;;;5031352;28;20424;-67
2021/12/02 05:17:25;;;;;;;3.10;0.60;;;;;;;;;;5030644;28;20499;-67
2021/12/02 05:19:51;;;;;;;3.60;0.70;;;;;;;;;;5032130;27;20471;-67
2021/12/02 05:22:17;;;;;;;2.00;0.60;;;;;;;;;;5031025;28;20892;-67
2021/12/02 05:24:43;;;;;;;1.98;0.70;;;;;;;;;;5048093;27;20425;-67
2021/12/02 05:27:12;;;;;;;2.15;0.77;;;;;;;;;;5030674;28;20501;-67
2021/12/02 05:29:38;;;;;;;2.38;0.70;;;;;;;;;;5030779;28;20440;-68
2021/12/02 05:32:04;;;;;;;3.67;0.80;;;;;;;;;;5028594;28;20429;-67
2021/12/02 05:34:30;;;;;;;3.20;1.02;;;;;;;;;;5029017;28;20433;-67
2021/12/02 05:36:56;;;;;;;2.53;0.60;;;;;;;;;;5029053;27;20426;-68
2021/12/02 05:39:22;;;;;;;1.63;0.70;;;;;;;;;;5030202;28;20932;-67
2021/12/02 05:41:53;;;;;;;2.83;0.70;;;;;;;;;;5030075;28;20497;-67
2021/12/02 05:44:19;;;;;;;2.45;0.70;;;;;;;;;;5083773;27;20474;-67
2021/12/02 05:46:45;;;;;;;2.95;0.60;;;;;;;;;;5029833;28;20425;-68
2021/12/02 05:49:11;;;;;;;3.85;0.80;;;;;;;;;;5026220;27;20533;-68
2021/12/02 05:51:37;;;;;;;3.67;1.02;;;;;;;;;;5030310;28;20564;-67
2021/12/02 05:54:03;;;;;;;6.60;0.80;;;;;;;;;;5055555;27;20424;-67
2021/12/02 05:56:29;;;;;;;7.13;4.22;;;;;;;;;;5029957;28;20428;-67
2021/12/02 05:58:55;;;;;;;6.97;4.03;;;;;;;;;;5047427;28;20422;-67
2021/12/02 06:01:23;;;;;;;6.15;2.45;;;;;;;;;;5046223;28;20504;-67
2021/12/02 06:03:49;;;;;;;6.70;2.63;;;;;;;;;;5026170;28;20869;-67
2021/12/02 06:06:17;;;;;;;10.43;3.88;;;;;;;;;;5028902;28;20781;-68
2021/12/02 06:08:43;;;;;;;8.27;2.60;;;;;;;;;;5014024;28;20417;-68
2021/12/02 06:11:09;;;;;;;6.28;1.40;;;;;;;;;;5029945;28;20428;-68
2021/12/02 06:13:35;;;;;;;9.30;4.10;;;;;;;;;;5047422;28;20429;-69
2021/12/02 06:16:01;;;;;;;5.70;1.88;;;;;;;;;;5029738;28;20421;-69
2021/12/02 06:18:27;;;;;;;5.00;1.10;;;;;;;;;;5028423;28;20504;-68
2021/12/02 06:20:54;;;;;;;4.20;1.48;;;;;;;;;;5028531;28;20911;-68
2021/12/02 06:23:20;;;;;;;5.60;1.70;;;;;;;;;;5028683;28;20433;-68
2021/12/02 06:25:47;;;;;;;6.32;1.70;;;;;;;;;;5028538;28;20437;-69
2021/12/02 06:28:13;;;;;;;4.43;1.65;;;;;;;;;;5013605;28;20921;-68
2021/12/02 06:30:40;;;;;;;3.50;1.10;;;;;;;;;;5028591;28;20417;-68
2021/12/02 06:33:06;;;;;;;5.18;1.50;;;;;;;;;;5012749;28;20421;-69
2021/12/02 06:35:32;;;;;;;7.80;3.58;;;;;;;;;;5028530;28;20432;-69
2021/12/02 06:37:58;;;;;;;13.67;4.47;;;;;;;;;;5013093;28;20427;-69
2021/12/02 06:40:24;;;;;;;11.82;4.07;;;;;;;;;;5027530;28;20777;-69
2021/12/02 06:42:51;;;;;;;8.18;3.28;;;;;;;;;;5028680;28;20429;-69
2021/12/02 06:45:19;;;;;;;5.50;1.52;;;;;;;;;;5028700;28;20409;-68
2021/12/02 06:47:45;;;;;;;5.57;1.38;;;;;;;;;;5028408;28;20746;-68
2021/12/02 06:50:15;;;;;;;3.78;1.48;;;;;;;;;;5046606;27;20421;-69
2021/12/02 06:52:42;;;;;;;6.97;1.98;;;;;;;;;;5028464;28;20545;-68
2021/12/02 06:55:08;;;;;;;5.03;1.98;;;;;;;;;;5029125;28;20429;-68
2021/12/02 06:57:34;;;;;;;5.15;1.33;;;;;;;;;;5046041;27;20444;-68
2021/12/02 07:00:07;;;;;;;3.90;0.90;;;;;;;;;;5021627;28;20888;-69
2021/12/02 07:02:33;;;;;;;5.97;1.05;;;;;;;;;;5024687;27;20433;-69
2021/12/02 07:04:59;;;;;;;4.15;0.90;;;;;;;;;;5064961;27;20409;-68
2021/12/02 07:07:30;;;;;;;4.72;1.17;;;;;;;;;;5028549;28;20445;-68
2021/12/02 07:09:58;;;;;;;2.75;1.00;;;;;;;;;;5012069;28;20432;-69
2021/12/02 07:12:29;;;;;;;4.83;1.17;;;;;;;;;;5028497;28;20421;-70
2021/12/02 07:14:57;;;;;;;3.67;1.02;;;;;;;;;;5030283;28;20431;-70
2021/12/02 07:17:23;;;;;;;4.70;0.95;;;;;;;;;;5033292;28;20489;-77
2021/12/02 07:19:49;;;;;;;5.18;1.40;;;;;;;;;;5031577;28;20512;-79
2021/12/02 07:22:15;;;;;;;3.55;1.10;;;;;;;;;;5032849;28;20429;-79
2021/12/02 07:24:41;;;;;;;3.65;1.60;;;;;;;;;;5033262;28;20921;-78
2021/12/02 07:27:07;;;;;;;6.35;1.60;;;;;;;;;;5059212;27;20781;-78
2021/12/02 07:29:33;;;;;;;5.45;1.67;;;;;;;;;;5034865;28;20448;-78
2021/12/02 07:32:02;;;;;;;5.18;1.75;;;;;;;;;;5031902;28;20434;-78
2021/12/02 07:34:28;;;;;;;5.95;1.70;;;;;;;;;;5030820;28;20460;-77
2021/12/02 07:36:56;;;;;;;5.20;1.73;;;;;;;;;;5031194;28;20485;-78
2021/12/02 07:39:23;;;;;;;5.30;2.58;;;;;;;;;;5026032;28;20889;-78
2021/12/02 07:41:49;;;;;;;4.82;1.48;;;;;;;;;;5061543;27;20508;-77
2021/12/02 07:44:16;;;;;;;4.97;1.63;;;;;;;;;;5015195;28;20504;-78
2021/12/02 07:46:42;;;;;;;5.47;1.67;;;;;;;;;;5063750;27;20937;-78
2021/12/02 07:49:12;;;;;;;4.40;1.40;;;;;;;;;;5047630;28;20510;-78
2021/12/02 07:51:39;;;;;;;4.35;1.40;;;;;;;;;;5032082;28;20912;-77
2021/12/02 07:54:05;;;;;;;2.95;1.40;;;;;;;;;;5015986;28;20417;-78
2021/12/02 07:56:33;;;;;;;5.05;1.35;;;;;;;;;;5049709;27;20608;-77
2021/12/02 07:58:59;;;;;;;4.55;1.30;;;;;;;;;;5013547;28;20425;-78
2021/12/02 08:01:25;;;;;;;5.13;1.55;;;;;;;;;;5115895;27;20429;-78
2021/12/02 08:03:51;;;;;;;4.20;1.50;;;;;;;;;;5029698;27;20817;-78
2021/12/02 08:06:18;;;;;;;4.43;1.40;;;;;;;;;;5024890;27;20418;-79
2021/12/02 08:08:45;;;;;;;3.60;1.60;;;;;;;;;;5027392;27;20429;-78
2021/12/02 08:11:13;;;;;;;5.32;1.52;;;;;;;;;;5027514;27;20429;-80
2021/12/02 08:13:40;;;;;;;6.22;1.60;;;;;;;;;;5025236;28;20437;-78
2021/12/02 08:16:07;;;;;;;5.43;1.95;;;;;;;;;;5026122;27;20509;-78
2021/12/02 08:18:34;;;;;;;4.53;1.70;;;;;;;;;;5025059;28;20426;-78
2021/12/02 08:21:00;;;;;;;4.93;1.80;;;;;;;;;;5009250;27;20428;-78
2021/12/02 08:23:27;;;;;;;6.87;1.97;;;;;;;;;;5025362;28;20909;-79
2021/12/02 08:25:54;;;;;;;3.90;1.50;;;;;;;;;;5055944;27;20450;-78
2021/12/02 08:28:20;;;;;;;5.95;2.00;;;;;;;;;;5025339;28;20996;-78
2021/12/02 08:30:46;;;;;;;7.13;2.00;;;;;;;;;;5007709;28;20416;-79
2021/12/02 08:33:14;;;;;;;5.25;1.90;;;;;;;;;;5025082;27;20425;-78
2021/12/02 08:35:40;;;;;;;4.93;2.00;;;;;;;;;;5023649;28;20429;-78
2021/12/02 08:38:10;;;;;;;5.45;1.80;;;;;;;;;;5103370;27;20558;-79
2021/12/02 08:40:37;;;;;;;4.45;1.73;;;;;;;;;;5026725;27;20425;-78
2021/12/02 08:43:04;;;;;;;5.60;1.70;;;;;;;;;;5008858;28;20569;-78
2021/12/02 08:45:31;;;;;;;6.72;1.90;;;;;;;;;;5041297;27;21090;-78
2021/12/02 08:47:58;;;;;;;5.18;2.13;;;;;;;;;;5026043;27;20425;-79
2021/12/02 08:50:24;;;;;;;6.95;2.20;;;;;;;;;;5057436;27;20429;-78
2021/12/02 08:52:51;;;;;;;5.07;1.75;;;;;;;;;;5024747;27;20834;-70
2021/12/02 08:55:18;;;;;;;5.70;1.90;;;;;;;;;;5025279;27;20413;-69
2021/12/02 08:57:44;;;;;;;5.70;2.05;;;;;;;;;;5022624;28;20441;-69
2021/12/02 09:00:12;;;;;;;3.75;1.80;;;;;;;;;;5024979;27;20479;-70
2021/12/02 09:02:40;;;;;;;6.07;1.80;;;;;;;;;;5023992;28;20846;-71
2021/12/02 09:05:07;;;;;;;4.13;1.80;;;;;;;;;;5061054;27;21432;-69
2021/12/02 09:07:35;;;;;;;8.45;2.08;;;;;;;;;;5024024;27;20417;-69
2021/12/02 09:10:01;;;;;;;6.05;1.98;;;;;;;;;;5020632;27;20516;-70
2021/12/02 09:12:27;;;;;;;4.85;2.08;;;;;;;;;;5022195;28;20421;-69
2021/12/02 09:14:53;;;;;;;6.18;2.22;;;;;;;;;;5023229;28;20424;-69
2021/12/02 09:17:19;;;;;;;5.60;2.23;;;;;;;;;;5024064;27;20430;-69
2021/12/02 09:19:45;;;;;;;4.80;2.38;;;;;;;;;;5023825;28;20536;-69
2021/12/02 09:22:12;;;;;;;4.15;1.95;;;;;;;;;;5024734;27;20514;-70
2021/12/02 09:24:39;;;;;;;5.88;2.03;;;;;;;;;;5108663;27;20420;-70
2021/12/02 09:27:05;;;;;;;7.47;2.22;;;;;;;;;;5024561;27;20570;-69
2021/12/02 09:29:31;;;;;;;3.55;1.50;;;;;;;;;;5023609;28;20420;-69
2021/12/02 09:31:57;;;;;;;8.32;1.63;;;;;;;;;;5026698;28;20504;-69
2021/12/02 09:34:25;;;;;;;6.05;1.63;;;;;;;;;;5013370;28;20428;-69
2021/12/02 09:36:52;;;;;;;6.47;1.83;;;;;;;;;;5027272;28;20413;-69
2021/12/02 09:39:18;;;;;;;5.63;1.65;;;;;;;;;;5026759;27;20956;-69
2021/12/02 09:41:47;;;;;;;5.90;1.90;;;;;;;;;;5026689;28;20426;-69
2021/12/02 09:44:14;;;;;;;4.57;1.60;;;;;;;;;;5060390;27;21638;-70
2021/12/02 09:46:41;;;;;;;6.97;1.90;;;;;;;;;;5012854;28;20486;-70
2021/12/02 09:49:08;;;;;;;6.43;2.22;;;;;;;;;;5027208;27;20554;-69
2021/12/02 09:52:30;;;;;;;7.10;2.17;;;;;;;;;;5028816;28;20448;-69
2021/12/02 09:54:49;;;;;;;5.23;1.90;;;;;;;;;;5035570;28;20441;-70
2021/12/02 09:57:18;;;;;;;5.50;2.00;;;;;;;;;;5008909;28;20414;-70
2021/12/02 10:02:15;;;;;;;6.50;2.20;;;;;;;;;;5025595;28;20433;-70
2021/12/02 10:04:59;;;;;;;3.85;1.83;;;;;;;;;;5010709;28;20738;-70
2021/12/02 10:07:35;;;;;;;5.30;1.70;;;;;;;;;;5037116;27;20443;-70
2021/12/02 10:10:15;;;;;;;8.05;1.90;;;;;;;;;;5025909;28;20482;-70
2021/12/02 10:12:51;;;;;;;4.35;1.58;;;;;;;;;;5026429;27;20429;-69
2021/12/02 10:15:18;;;;;;;10.65;3.78;;;;;;;;;;5023900;28;20413;-69
2021/12/02 10:17:47;;;;;;;6.05;2.00;;;;;;;;;;5029985;28;20485;-69
2021/12/02 10:23:10;;;;;;;4.85;1.90;;;;;;;;;;5057449;27;20477;-69
2021/12/02 10:25:37;;;;;;;7.72;2.45;;;;;;;;;;5024237;27;20414;-69
2021/12/02 10:28:10;;;;;;;5.70;1.50;;;;;;;;;;5027539;28;20928;-69
2021/12/02 10:30:43;;;;;;;4.80;1.30;;;;;;;;;;5080586;27;20428;-69
2021/12/02 10:33:10;;;;;;;4.47;1.48;;;;;;;;;;5027170;27;20467;-70
2021/12/02 10:35:46;;;;;;;2.95;1.00;;;;;;;;;;5030410;28;20452;-70
2021/12/02 10:38:31;;;;;;;2.65;0.98;;;;;;;;;;5028678;28;20924;-70
2021/12/02 10:41:01;;;;;;;3.92;1.13;;;;;;;;;;5059620;27;20505;-70
2021/12/02 10:43:27;;;;;;;4.45;1.20;;;;;;;;;;5028592;28;20482;-70
2021/12/02 10:46:11;;;;;;;2.25;1.00;;;;;;;;;;5031579;28;20431;-69
2021/12/02 10:49:19;;;;;;;3.95;1.10;;;;;;;;;;5056088;27;20423;-70
2021/12/02 10:51:50;;;;;;;3.28;1.27;;;;;;;;;;5040038;28;20788;-70
2021/12/02 10:54:24;;;;;;;1.88;0.70;;;;;;;;;;5009996;28;20429;-71
2021/12/02 10:56:51;;;;;;;2.17;0.75;;;;;;;;;;5062085;27;20440;-69
2021/12/02 10:59:25;;;;;;;2.33;0.70;;;;;;;;;;5030311;28;20593;-71
2021/12/02 11:01:56;;;;;;;2.00;0.73;;;;;;;;;;5026321;27;21122;-72
2021/12/02 11:04:34;;;;;;;2.08;0.80;;;;;;;;;;5024988;28;20565;-71
2021/12/02 11:07:20;;;;;;;1.42;0.60;;;;;;;;;;5030155;28;20417;-72
2021/12/02 11:09:48;;;;;;;3.05;0.90;;;;;;;;;;5007591;28;20489;-72
2021/12/02 11:12:22;;;;;;;2.17;0.70;;;;;;;;;;5028869;28;20445;-70
2021/12/02 11:14:54;;;;;;;2.22;0.80;;;;;;;;;;5093805;28;20422;-71
2021/12/02 11:17:21;;;;;;;2.65;0.93;;;;;;;;;;5026995;28;20447;-71
2021/12/02 11:19:48;;;;;;;2.33;0.73;;;;;;;;;;5059465;27;20429;-77
2021/12/02 11:22:19;;;;;;;2.75;0.98;;;;;;;;;;5060595;27;20437;-76
2021/12/02 11:24:46;;;;;;;1.48;0.80;;;;;;;;;;5007706;28;20884;-75
2021/12/02 11:27:21;;;;;;;2.10;1.00;;;;;;;;;;5026926;28;20822;-76
2021/12/02 11:29:52;;;;;;;1.50;0.90;;;;;;;;;;5027371;28;20482;-77
2021/12/02 11:32:38;;;;;;;2.70;1.13;;;;;;;;;;5045425;27;20807;-75
2021/12/02 11:35:24;;;;;;;2.30;1.00;;;;;;;;;;5025581;28;20792;-75
2021/12/02 11:37:52;;;;;;;3.05;1.00;;;;;;;;;;5042741;27;20409;-76
2021/12/02 11:40:18;;;;;;;1.85;0.50;;;;;;;;;;5044645;27;20453;-75
2021/12/02 11:42:45;;;;;;;1.63;0.60;;;;;;;;;;5029234;28;20474;-76
2021/12/02 11:45:12;;;;;;;3.45;0.80;;;;;;;;;;5029945;28;20504;-75
2021/12/02 11:48:06;;;;;;;1.57;0.50;;;;;;;;;;5031823;27;20501;-75
2021/12/02 11:50:31;;;;;;;3.20;0.90;;;;;;;;;;5026970;28;20430;-76
2021/12/02 11:52:58;;;;;;;2.40;0.88;;;;;;;;;;5026560;28;20432;-76
2021/12/02 11:55:26;;;;;;;3.25;0.85;;;;;;;;;;5118952;27;20520;-74
2021/12/02 11:57:53;;;;;;;1.42;0.57;;;;;;;;;;5092430;27;21036;-74
2021/12/02 12:00:21;;;;;;;2.42;0.90;;;;;;;;;;5031663;28;20992;-75
2021/12/02 12:02:48;;;;;;;1.67;0.70;;;;;;;;;;5046631;27;20457;-75
2021/12/02 12:05:15;;;;;;;3.10;0.70;;;;;;;;;;5027230;28;20992;-75
2021/12/02 12:07:43;;;;;;;2.17;0.80;;;;;;;;;;5062661;28;20494;-76
2021/12/02 12:10:16;;;;;;;2.75;0.75;;;;;;;;;;5075181;27;20512;-75
2021/12/02 12:12:43;;;;;;;2.00;0.85;;;;;;;;;;5028075;28;20433;-75
2021/12/02 12:15:28;;;;;;;1.77;0.80;;;;;;;;;;5028187;28;20827;-75
2021/12/02 12:17:54;;;;;;;1.58;0.80;;;;;;;;;;5028611;28;20423;-75
2021/12/02 12:20:20;;;;;;;2.53;1.08;;;;;;;;;;5029615;28;20896;-78
2021/12/02 12:22:46;;;;;;;2.17;0.90;;;;;;;;;;5032692;27;20413;-79
2021/12/02 12:25:28;;;;;;;2.10;0.80;;;;;;;;;;5013588;28;20435;-79
2021/12/02 12:28:00;;;;;;;2.50;0.90;;;;;;;;;;5033528;27;20555;-78
2021/12/02 12:30:36;;;;;;;2.58;1.10;;;;;;;;;;5063904;27;20429;-78
2021/12/02 12:33:05;;;;;;;2.35;0.85;;;;;;;;;;5055757;27;20432;-78
2021/12/02 12:38:01;;;;;;;2.85;0.80;;;;;;;;;;5045291;27;20437;-77
2021/12/02 12:40:27;;;;;;;2.13;0.90;;;;;;;;;;5029874;28;20516;-78
2021/12/02 12:42:53;;;;;;;3.17;1.00;;;;;;;;;;5044810;27;20497;-78
2021/12/02 12:45:41;;;;;;;2.20;1.00;;;;;;;;;;5106268;27;20428;-78
2021/12/02 12:48:09;;;;;;;2.55;0.70;;;;;;;;;;5048963;27;20425;-78
2021/12/02 12:50:41;;;;;;;3.20;0.90;;;;;;;;;;5046587;27;20551;-78
2021/12/02 12:53:09;;;;;;;1.87;0.60;;;;;;;;;;5046940;27;20421;-78
2021/12/02 12:55:40;;;;;;;1.85;0.75;;;;;;;;;;5048062;27;20490;-78
2021/12/02 12:58:18;;;;;;;2.10;0.60;;;;;;;;;;5046115;27;20429;-77
2021/12/02 13:00:44;;;;;;;3.63;0.90;;;;;;;;;;5110446;27;20425;-78
2021/12/02 13:03:15;;;;;;;2.85;0.85;;;;;;;;;;5027763;27;20504;-78
2021/12/02 13:06:05;;;;;;;2.00;0.87;;;;;;;;;;5029078;28;20409;-78
2021/12/02 13:08:37;;;;;;;2.78;0.98;;;;;;;;;;5049786;27;20762;-77
2021/12/02 13:11:14;;;;;;;2.47;1.00;;;;;;;;;;5046681;27;20446;-77
2021/12/02 13:13:41;;;;;;;4.47;1.50;;;;;;;;;;5027026;28;20462;-76
2021/12/02 13:16:15;;;;;;;3.60;1.30;;;;;;;;;;5047108;27;20414;-76
2021/12/02 13:18:42;;;;;;;3.53;0.98;;;;;;;;;;5094743;27;20467;-77
2021/12/02 13:23:55;;;;;;;1.75;0.93;;;;;;;;;;5041848;27;20884;-76
2021/12/02 13:26:32;;;;;;;2.85;0.90;;;;;;;;;;5045281;27;20425;-77
2021/12/02 13:29:01;;;;;;;2.58;1.00;;;;;;;;;;5108344;27;20422;-76
2021/12/02 13:31:28;;;;;;;2.70;1.10;;;;;;;;;;5044377;27;20417;-76
2021/12/02 13:34:13;;;;;;;1.55;1.00;;;;;;;;;;5044744;27;20417;-75
2021/12/02 13:36:44;;;;;;;3.13;1.05;;;;;;;;;;5033541;27;20421;-76
2021/12/02 13:39:15;;;;;;;3.22;1.23;;;;;;;;;;5024952;28;20973;-76
2021/12/02 13:41:46;;;;;;;4.28;1.77;;;;;;;;;;5046629;27;20761;-76
2021/12/02 13:44:14;;;;;;;4.80;1.90;;;;;;;;;;5106032;27;20437;-75
2021/12/02 13:46:42;;;;;;;3.80;1.90;;;;;;;;;;5042950;27;20474;-77
2021/12/02 13:49:13;;;;;;;3.70;1.90;;;;;;;;;;5045159;27;20512;-78
2021/12/02 13:54:33;;;;;;;5.90;3.55;;;;;;;;;;5048356;27;20428;-75
2021/12/02 13:57:00;;;;;;;2.43;1.20;;;;;;;;;;5026206;27;20492;-78
2021/12/02 13:59:37;;;;;;;2.38;1.20;;;;;;;;;;5002350;28;20939;-76
2021/12/02 14:02:03;;;;;;;1.73;0.88;;;;;;;;;;5004982;28;20440;-76
2021/12/02 14:04:29;;;;;;;1.50;0.90;;;;;;;;;;5004766;28;20429;-76
2021/12/02 14:07:09;;;;;;;2.50;0.80;;;;;;;;;;5018850;28;20428;-77
2021/12/02 14:09:54;;;;;;;2.97;0.80;;;;;;;;;;5003152;28;21683;-76
2021/12/02 14:12:23;;;;;;;2.25;0.95;;;;;;;;;;5000996;28;20504;-76
2021/12/02 14:14:57;;;;;;;2.72;0.80;;;;;;;;;;5002540;28;20469;-76
2021/12/02 14:17:23;;;;;;;1.40;0.80;;;;;;;;;;5003203;28;20432;-76
2021/12/02 14:20:07;;;;;;;1.83;0.90;;;;;;;;;;5018589;28;20414;-76
2021/12/02 14:22:35;;;;;;;4.57;1.60;;;;;;;;;;5002230;28;20429;-75
2021/12/02 14:25:01;;;;;;;3.77;1.80;;;;;;;;;;4984398;28;20432;-76
2021/12/02 14:27:27;;;;;;;3.85;1.60;;;;;;;;;;5002800;28;20485;-77
2021/12/02 14:30:11;;;;;;;5.28;2.13;;;;;;;;;;5001717;28;21206;-77
2021/12/02 14:32:37;;;;;;;3.13;1.40;;;;;;;;;;5002646;28;20904;-75
2021/12/02 14:35:19;;;;;;;2.50;1.20;;;;;;;;;;5003173;28;20472;-69
2021/12/02 14:37:47;;;;;;;2.90;0.90;;;;;;;;;;5001349;28;20429;-69
2021/12/02 14:40:40;;;;;;;3.42;0.90;;;;;;;;;;5002363;28;20416;-68
2021/12/02 14:43:20;;;;;;;3.40;1.00;;;;;;;;;;5024238;27;21068;-68
2021/12/02 14:45:48;;;;;;;2.70;0.90;;;;;;;;;;5001979;28;20428;-69
2021/12/02 14:48:25;;;;;;;1.55;0.90;;;;;;;;;;5001899;28;21138;-68
2021/12/02 14:51:02;;;;;;;2.03;1.10;;;;;;;;;;4984465;28;21883;-69
2021/12/02 14:53:49;;;;;;;2.50;1.20;;;;;;;;;;4985147;28;20843;-69
2021/12/02 14:56:28;;;;;;;2.27;1.10;;;;;;;;;;5003204;28;22010;-69
2021/12/02 14:59:07;;;;;;;3.22;1.25;;;;;;;;;;5031674;27;20501;-68
2021/12/02 15:01:34;;;;;;;3.58;1.60;;;;;;;;;;5042394;27;20517;-69
2021/12/02 15:04:19;;;;;;;3.97;1.20;;;;;;;;;;5027196;28;20430;-69
2021/12/02 15:06:45;;;;;;;3.22;1.60;;;;;;;;;;5025752;27;20909;-69
2021/12/02 15:09:27;;;;;;;4.00;1.73;;;;;;;;;;5044991;27;20428;-69
2021/12/02 15:11:53;;;;;;;3.50;1.42;;;;;;;;;;5040043;27;20425;-68
2021/12/02 15:14:34;;;;;;;6.80;2.00;;;;;;;;;;5058305;27;20459;-68
2021/12/02 15:17:00;;;;;;;6.07;2.03;;;;;;;;;;5026778;27;20561;-69